Terminal Aerodrome Forecast
Issued by NWS

Home | Current Version | Previous Version | Text Only | Print | Product List | Glossary On
Versions: 1 2 3 4 5 6 7 8 9 10 11 12 13 14 15
954
FTUS46 KMTR 301120
TAFSNS
TAF
KSNS 301120Z 3012/3112 29004KT 2SM BR OVC002
     FM301700 29008KT 6SM HZ FU SCT005 SCT120
     FM302000 29012KT 6SM HZ FEW010 SCT120
     FM310300 29010KT 6SM HZ BR OVC007
     FM310800 29006KT 4SM HZ OVC004=

USA.gov is the U.S. government's official web portal to all federal, state and local government web resources and services.